Time;durP1;ratioP1;P1;durP2;ratioP2;P2;SDS_P1;SDS_P2;PMS_P1;PMS_P2;Temp;Humidity;BMP_temperature;BMP_pressure;BME280_temperature;BME280_humidity;BME280_pressure;Samples;Min_cycle;Max_cycle;Signal;HPM_P1;HPM_P2
2021/11/23 00:02:24;;;;;;;11.05;6.00;;;3.60;99.90;;;;;;5089350;28;20456;-53
2021/11/23 00:04:50;;;;;;;12.18;6.50;;;2.90;99.90;;;;;;5090112;28;20412;-53
2021/11/23 00:07:16;;;;;;;10.85;6.00;;;2.90;99.90;;;;;;5088964;28;20397;-54
2021/11/23 00:09:42;;;;;;;10.48;6.35;;;3.90;99.90;;;;;;5090100;28;20976;-53
2021/11/23 00:12:08;;;;;;;10.25;5.88;;;2.90;99.90;;;;;;5089816;28;20402;-53
2021/11/23 00:14:33;;;;;;;10.00;6.27;;;2.90;99.90;;;;;;5089125;28;20374;-53
2021/11/23 00:16:59;;;;;;;10.98;6.10;;;2.90;99.90;;;;;;5089816;28;20382;-53
2021/11/23 00:19:25;;;;;;;9.70;5.70;;;2.70;99.90;;;;;;5088645;28;20893;-53
2021/11/23 00:21:50;;;;;;;10.35;5.43;;;2.80;99.90;;;;;;5089432;28;20417;-53
2021/11/23 00:24:16;;;;;;;11.17;6.10;;;4.10;99.90;;;;;;5088833;28;20382;-55
2021/11/23 00:26:42;;;;;;;10.50;5.35;;;3.50;99.90;;;;;;5089626;28;20762;-53
2021/11/23 00:29:08;;;;;;;10.13;5.85;;;2.80;99.90;;;;;;5089456;28;20440;-53
2021/11/23 00:31:33;;;;;;;10.00;5.50;;;4.00;99.90;;;;;;5088857;28;20608;-53
2021/11/23 00:33:59;;;;;;;10.75;5.65;;;2.70;99.90;;;;;;5089527;28;20425;-53
2021/11/23 00:36:25;;;;;;;11.13;6.03;;;3.20;99.90;;;;;;5088629;28;20484;-54
2021/11/23 00:38:50;;;;;;;11.35;6.40;;;2.80;99.90;;;;;;5089280;28;20515;-53
2021/11/23 00:41:19;;;;;;;14.20;6.70;;;3.20;99.90;;;;;;5088568;28;20386;-56
2021/11/23 00:43:46;;;;;;;14.15;7.57;;;2.80;99.90;;;;;;5089179;28;20399;-53
2021/11/23 00:46:13;;;;;;;11.85;6.13;;;3.80;99.90;;;;;;5089120;28;20607;-53
2021/11/23 00:48:38;;;;;;;15.47;6.87;;;3.30;99.90;;;;;;5088625;28;20673;-54
2021/11/23 00:51:05;;;;;;;14.37;6.93;;;2.70;99.90;;;;;;5089593;28;20381;-53
2021/11/23 00:53:33;;;;;;;11.43;6.70;;;4.60;99.90;;;;;;5088837;28;20530;-53
2021/11/23 00:56:00;;;;;;;13.68;6.00;;;2.70;99.90;;;;;;5089155;28;20390;-53
2021/11/23 00:58:26;;;;;;;12.13;6.68;;;2.60;99.90;;;;;;5088365;28;20432;-53
2021/11/23 01:00:51;;;;;;;14.80;7.50;;;4.00;99.90;;;;;;5089601;28;20374;-53
2021/11/23 01:03:18;;;;;;;12.80;7.17;;;2.70;99.90;;;;;;5088611;28;20370;-55
2021/11/23 01:05:47;;;;;;;14.73;7.68;;;2.60;99.90;;;;;;5088931;28;20428;-53
2021/11/23 01:08:17;;;;;;;12.70;7.13;;;4.30;99.90;;;;;;5088901;28;20389;-53
2021/11/23 01:10:44;;;;;;;12.30;7.00;;;2.70;99.90;;;;;;5088691;28;20898;-53
2021/11/23 01:13:10;;;;;;;15.00;7.60;;;2.80;99.90;;;;;;5089271;28;20390;-53
2021/11/23 01:15:36;;;;;;;13.70;7.70;;;2.60;99.90;;;;;;5087963;28;20382;-53
2021/11/23 01:18:03;;;;;;;12.90;7.20;;;2.80;99.90;;;;;;5088849;28;20772;-53
2021/11/23 01:20:29;;;;;;;12.20;7.40;;;3.30;99.90;;;;;;5088217;28;20375;-53
2021/11/23 01:22:57;;;;;;;14.50;7.53;;;2.30;99.90;;;;;;5088972;28;20382;-54
2021/11/23 01:25:23;;;;;;;14.00;7.40;;;2.20;99.90;;;;;;5088225;28;20936;-53
2021/11/23 01:27:48;;;;;;;14.40;7.50;;;2.20;99.90;;;;;;5088897;28;20414;-53
2021/11/23 01:30:14;;;;;;;14.63;7.67;;;2.10;99.90;;;;;;5088963;28;20405;-53
2021/11/23 01:32:41;;;;;;;15.40;8.07;;;2.00;99.90;;;;;;5087959;28;20490;-53
2021/11/23 01:35:08;;;;;;;14.10;7.20;;;2.50;99.90;;;;;;5088905;28;20390;-53
2021/11/23 01:37:34;;;;;;;13.88;7.55;;;1.90;99.90;;;;;;5087854;28;20747;-53
2021/11/23 01:40:00;;;;;;;12.38;7.43;;;2.60;99.90;;;;;;5088540;28;20867;-53
2021/11/23 01:42:26;;;;;;;16.52;8.15;;;1.90;99.90;;;;;;5088030;28;20401;-53
2021/11/23 01:44:52;;;;;;;15.48;8.02;;;1.90;99.90;;;;;;5088520;28;20374;-53
2021/11/23 01:47:18;;;;;;;15.38;8.32;;;1.90;99.90;;;;;;5088612;28;20398;-55
2021/11/23 01:49:44;;;;;;;14.13;8.35;;;1.90;99.90;;;;;;5088057;28;20461;-53
2021/11/23 01:52:09;;;;;;;14.40;8.10;;;2.00;99.90;;;;;;5088657;28;20733;-53
2021/11/23 01:54:36;;;;;;;14.93;7.90;;;2.00;99.90;;;;;;5087890;28;20370;-53
2021/11/23 01:57:02;;;;;;;14.50;8.50;;;2.00;99.90;;;;;;5088612;28;20417;-53
2021/11/23 01:59:28;;;;;;;13.93;7.85;;;2.20;99.90;;;;;;5087781;28;20405;-53
2021/11/23 02:01:54;;;;;;;15.63;8.43;;;2.10;99.90;;;;;;5088126;28;20843;-53
2021/11/23 02:04:21;;;;;;;14.50;8.02;;;3.90;99.90;;;;;;5088296;28;20378;-56
2021/11/23 02:06:48;;;;;;;14.98;8.07;;;2.00;99.90;;;;;;5088120;28;20406;-53
2021/11/23 02:09:14;;;;;;;14.63;7.70;;;2.00;99.90;;;;;;5088530;28;20439;-53
2021/11/23 02:11:39;;;;;;;15.75;8.70;;;2.00;99.90;;;;;;5087652;28;20426;-53
2021/11/23 02:14:05;;;;;;;14.87;8.03;;;2.00;99.90;;;;;;5088756;28;20371;-54
2021/11/23 02:16:31;;;;;;;14.30;8.43;;;2.00;99.90;;;;;;5088858;28;20382;-53
2021/11/23 02:18:57;;;;;;;16.97;8.40;;;2.00;99.90;;;;;;5091747;28;20935;-53
2021/11/23 02:21:23;;;;;;;14.03;7.30;;;2.00;99.90;;;;;;5091332;28;20404;-55
2021/11/23 02:23:49;;;;;;;14.43;7.70;;;2.80;99.90;;;;;;5091303;28;20528;-53
2021/11/23 02:26:15;;;;;;;13.70;7.80;;;3.80;99.90;;;;;;5091859;28;20452;-53
2021/11/23 02:28:42;;;;;;;13.83;7.87;;;1.90;99.90;;;;;;5091385;28;20401;-53
2021/11/23 02:31:08;;;;;;;13.40;7.78;;;3.10;99.90;;;;;;5091857;28;20863;-53
2021/11/23 02:33:35;;;;;;;15.05;7.57;;;1.80;99.90;;;;;;5090850;28;20366;-53
2021/11/23 02:36:04;;;;;;;15.15;7.90;;;2.40;99.90;;;;;;5092214;28;20467;-53
2021/11/23 02:38:32;;;;;;;14.55;8.15;;;1.80;99.90;;;;;;5090811;28;20492;-53
2021/11/23 02:40:58;;;;;;;13.43;7.17;;;1.70;99.90;;;;;;5091349;28;20525;-53
2021/11/23 02:43:24;;;;;;;15.20;7.83;;;1.70;99.90;;;;;;5091205;28;20510;-56
2021/11/23 02:45:52;;;;;;;14.30;7.90;;;2.20;99.90;;;;;;5091460;28;20875;-51
2021/11/23 02:48:19;;;;;;;14.20;7.60;;;1.70;99.90;;;;;;5090984;28;20386;-51
2021/11/23 02:50:57;;;;;;;13.93;7.45;;;2.40;99.90;;;;;;5090661;28;20378;-51
2021/11/23 02:53:24;;;;;;;14.35;7.63;;;1.50;99.90;;;;;;5091213;28;20398;-54
2021/11/23 02:55:50;;;;;;;13.88;6.93;;;2.30;99.90;;;;;;5090938;28;20379;-51
2021/11/23 02:58:16;;;;;;;13.88;6.82;;;1.40;99.90;;;;;;5073216;28;20467;-51
2021/11/23 03:00:42;;;;;;;15.65;7.70;;;1.40;99.90;;;;;;5090550;28;20440;-52
2021/11/23 03:03:08;;;;;;;14.93;7.45;;;1.40;99.90;;;;;;5090797;28;20381;-52
2021/11/23 03:05:34;;;;;;;14.77;7.90;;;1.20;99.90;;;;;;5090243;28;20398;-52
2021/11/23 03:07:59;;;;;;;14.55;7.43;;;2.40;99.90;;;;;;5090805;28;20871;-52
2021/11/23 03:10:28;;;;;;;15.02;7.32;;;1.30;99.90;;;;;;5090179;28;20913;-54
2021/11/23 03:12:56;;;;;;;14.73;7.35;;;1.20;99.90;;;;;;5090954;28;20747;-51
2021/11/23 03:15:23;;;;;;;14.88;7.43;;;2.50;99.90;;;;;;5090761;28;20374;-52
2021/11/23 03:17:49;;;;;;;13.07;7.15;;;1.10;99.90;;;;;;5090330;28;20392;-51
2021/11/23 03:20:17;;;;;;;15.85;7.78;;;1.10;99.90;;;;;;5090883;28;20549;-52
2021/11/23 03:22:43;;;;;;;13.52;7.07;;;1.10;99.90;;;;;;5089909;28;21223;-52
2021/11/23 03:25:10;;;;;;;13.18;7.10;;;1.30;99.90;;;;;;5090378;28;20851;-51
2021/11/23 03:27:36;;;;;;;18.83;10.50;;;1.10;99.90;;;;;;5088791;28;20394;-52
2021/11/23 03:30:06;;;;;;;19.27;10.13;;;1.00;99.90;;;;;;5090819;28;20379;-52
2021/11/23 03:32:31;;;;;;;17.48;9.45;;;1.00;99.90;;;;;;5089250;28;20871;-52
2021/11/23 03:34:57;;;;;;;17.80;9.10;;;2.30;99.90;;;;;;5090323;28;20382;-51
2021/11/23 03:37:25;;;;;;;15.97;8.77;;;2.10;99.90;;;;;;5072195;28;20386;-52
2021/11/23 03:39:53;;;;;;;15.55;8.13;;;1.00;99.90;;;;;;5090203;28;20451;-52
2021/11/23 03:42:19;;;;;;;14.73;7.78;;;0.90;99.90;;;;;;5089907;28;20396;-52
2021/11/23 03:44:45;;;;;;;14.63;7.50;;;1.20;99.90;;;;;;5089778;28;20386;-52
2021/11/23 03:47:14;;;;;;;14.20;8.13;;;0.90;99.90;;;;;;5090089;28;20406;-51
2021/11/23 03:49:42;;;;;;;13.57;7.30;;;2.70;99.90;;;;;;5070892;28;20406;-52
2021/11/23 03:52:08;;;;;;;15.20;8.15;;;0.80;99.90;;;;;;5090085;28;20370;-52
2021/11/23 03:54:34;;;;;;;14.15;7.82;;;1.10;99.90;;;;;;5089361;28;20386;-52
2021/11/23 03:57:00;;;;;;;13.43;7.60;;;0.80;99.90;;;;;;5090421;28;20394;-51
2021/11/23 03:59:26;;;;;;;15.65;8.10;;;0.90;99.90;;;;;;5089692;28;20382;-54
2021/11/23 04:01:52;;;;;;;14.93;7.87;;;0.80;99.90;;;;;;5089575;28;20839;-52
2021/11/23 04:04:18;;;;;;;14.10;7.95;;;0.80;99.90;;;;;;5089610;28;20382;-52
2021/11/23 04:06:44;;;;;;;16.15;8.70;;;0.80;99.90;;;;;;5089070;28;20402;-52
2021/11/23 04:09:10;;;;;;;15.55;8.68;;;0.70;99.90;;;;;;5088585;28;20386;-51
2021/11/23 04:11:36;;;;;;;16.92;9.00;;;0.70;99.90;;;;;;5088934;28;20441;-52
2021/11/23 04:14:01;;;;;;;17.17;8.37;;;0.70;99.90;;;;;;5089595;28;20856;-52
2021/11/23 04:16:27;;;;;;;14.95;8.18;;;0.70;99.90;;;;;;5089586;28;20378;-53
2021/11/23 04:18:54;;;;;;;14.18;7.60;;;0.60;99.90;;;;;;5070946;28;20806;-51
2021/11/23 04:21:20;;;;;;;17.03;8.03;;;0.50;99.90;;;;;;5089494;28;20370;-52
2021/11/23 04:23:46;;;;;;;14.82;8.00;;;0.50;99.90;;;;;;5088525;28;20383;-51
2021/11/23 04:26:12;;;;;;;14.32;7.95;;;2.10;99.90;;;;;;5089523;28;20398;-51
2021/11/23 04:28:38;;;;;;;14.13;8.25;;;1.60;99.90;;;;;;5088584;28;20378;-52
2021/11/23 04:31:04;;;;;;;14.13;7.63;;;1.20;99.90;;;;;;5088787;28;20386;-51
2021/11/23 04:33:30;;;;;;;15.30;8.00;;;0.60;99.90;;;;;;5088809;28;20389;-54
2021/11/23 04:35:56;;;;;;;15.68;7.70;;;0.90;99.90;;;;;;5089482;28;20908;-51
2021/11/23 04:38:22;;;;;;;15.55;8.68;;;0.60;99.90;;;;;;5089001;28;20378;-51
2021/11/23 04:40:48;;;;;;;15.77;7.93;;;0.60;99.90;;;;;;5087980;28;20390;-51
2021/11/23 04:43:14;;;;;;;13.95;7.97;;;0.60;99.90;;;;;;5089458;28;20381;-52
2021/11/23 04:45:40;;;;;;;16.02;8.45;;;0.50;99.90;;;;;;5088187;28;20458;-51
2021/11/23 04:48:07;;;;;;;16.67;8.85;;;0.40;99.90;;;;;;5089152;28;20812;-51
2021/11/23 04:50:33;;;;;;;15.45;8.40;;;1.60;99.90;;;;;;5070085;28;20484;-53
2021/11/23 04:53:01;;;;;;;15.18;8.35;;;0.40;99.90;;;;;;5089150;28;20382;-51
2021/11/23 04:55:26;;;;;;;14.90;7.85;;;0.40;99.90;;;;;;5089005;28;20421;-52
2021/11/23 04:57:52;;;;;;;17.20;8.80;;;1.10;99.90;;;;;;5088196;28;20417;-52
2021/11/23 05:00:18;;;;;;;17.50;8.30;;;0.40;99.90;;;;;;5070971;28;20474;-51
2021/11/23 05:02:44;;;;;;;17.48;9.00;;;0.40;99.90;;;;;;5069897;28;20867;-52
2021/11/23 05:05:12;;;;;;;16.75;8.90;;;0.40;99.90;;;;;;5088867;28;20427;-51
2021/11/23 05:07:39;;;;;;;23.33;9.20;;;0.50;99.90;;;;;;5087961;28;20413;-52
2021/11/23 05:10:06;;;;;;;16.98;8.57;;;0.50;99.90;;;;;;5088523;28;20907;-52
2021/11/23 05:12:32;;;;;;;16.67;9.10;;;0.40;99.90;;;;;;5088710;28;20481;-54
2021/11/23 05:14:58;;;;;;;17.13;8.70;;;0.40;99.90;;;;;;5088575;28;20374;-52
2021/11/23 05:17:24;;;;;;;17.87;8.73;;;0.40;99.90;;;;;;5088690;28;20393;-51
2021/11/23 05:19:49;;;;;;;17.02;9.10;;;0.50;99.90;;;;;;5088283;28;20370;-52
2021/11/23 05:22:16;;;;;;;16.40;8.75;;;0.40;99.90;;;;;;5088498;28;20377;-52
2021/11/23 05:24:41;;;;;;;16.73;9.13;;;1.30;99.90;;;;;;5088303;28;20370;-51
2021/11/23 05:27:07;;;;;;;17.83;8.93;;;0.40;99.90;;;;;;5088937;28;20408;-52
2021/11/23 05:29:33;;;;;;;16.17;8.75;;;0.30;99.90;;;;;;5087939;28;20770;-53
2021/11/23 05:31:59;;;;;;;15.43;8.30;;;0.30;99.90;;;;;;5088135;28;20473;-51
2021/11/23 05:34:24;;;;;;;17.70;9.63;;;0.30;99.90;;;;;;5088720;28;20431;-52
2021/11/23 05:36:50;;;;;;;17.07;8.50;;;0.30;99.90;;;;;;5087847;28;20382;-52
2021/11/23 05:39:16;;;;;;;16.90;9.18;;;1.20;99.90;;;;;;5088432;28;20900;-51
2021/11/23 05:41:41;;;;;;;17.70;9.30;;;0.20;99.90;;;;;;5087657;28;20386;-51
2021/11/23 05:44:09;;;;;;;14.30;8.30;;;0.10;99.90;;;;;;5088753;28;20778;-52
2021/11/23 05:46:36;;;;;;;14.68;8.05;;;0.10;99.90;;;;;;5088160;28;20455;-54
2021/11/23 05:49:02;;;;;;;16.15;8.52;;;0.10;99.90;;;;;;5088937;28;20394;-52
2021/11/23 05:51:28;;;;;;;16.08;9.10;;;0.10;99.90;;;;;;5089838;28;20374;-52
2021/11/23 05:53:53;;;;;;;17.80;8.85;;;0.10;99.90;;;;;;5091713;28;20989;-52
2021/11/23 05:56:19;;;;;;;18.03;9.30;;;1.20;99.90;;;;;;5074104;28;20390;-52
2021/11/23 05:58:45;;;;;;;17.03;8.60;;;0.00;99.90;;;;;;5056827;28;20378;-51
2021/11/23 06:01:10;;;;;;;20.58;9.20;;;1.20;99.90;;;;;;5086871;28;20378;-51
2021/11/23 06:03:36;;;;;;;16.73;8.95;;;-0.10;99.90;;;;;;5073928;28;20415;-54
2021/11/23 06:06:03;;;;;;;19.13;9.13;;;-0.10;99.90;;;;;;5071655;28;20475;-52
2021/11/23 06:08:28;;;;;;;17.55;9.07;;;-0.10;99.90;;;;;;5071536;28;20391;-52
2021/11/23 06:10:54;;;;;;;18.58;9.20;;;-0.10;99.90;;;;;;5074606;28;20471;-52
2021/11/23 06:13:20;;;;;;;18.13;8.98;;;-0.20;99.90;;;;;;5087735;28;20395;-52
2021/11/23 06:15:47;;;;;;;17.65;9.63;;;-0.20;99.90;;;;;;5078450;28;20379;-52
2021/11/23 06:18:14;;;;;;;18.40;10.15;;;-0.20;99.90;;;;;;5079875;28;20380;-52
2021/11/23 06:20:48;;;;;;;21.27;11.20;;;-0.30;99.90;;;;;;5078448;28;20387;-51
2021/11/23 06:23:18;;;;;;;18.67;10.50;;;-0.30;99.90;;;;;;5080026;28;21455;-51
2021/11/23 06:25:49;;;;;;;20.70;10.38;;;-0.30;99.90;;;;;;5079435;28;20415;-52
2021/11/23 06:28:18;;;;;;;20.10;11.13;;;-0.20;99.90;;;;;;5079164;28;20388;-52
2021/11/23 06:30:45;;;;;;;21.88;11.65;;;-0.20;99.90;;;;;;5078852;28;20398;-51
2021/11/23 06:33:11;;;;;;;17.95;10.55;;;-0.20;99.90;;;;;;5060132;28;20437;-52
2021/11/23 06:35:38;;;;;;;20.35;10.85;;;-0.20;99.90;;;;;;5080766;28;20430;-53
2021/11/23 06:38:05;;;;;;;21.50;11.20;;;-0.20;99.90;;;;;;5082414;28;20386;-52
2021/11/23 06:40:37;;;;;;;20.30;11.50;;;-0.20;99.90;;;;;;5091375;28;20420;-52
2021/11/23 06:43:03;;;;;;;24.05;12.27;;;-0.20;99.90;;;;;;5091050;28;20390;-51
2021/11/23 06:45:29;;;;;;;22.65;11.82;;;1.10;99.90;;;;;;5090933;28;20718;-52
2021/11/23 06:47:55;;;;;;;21.98;11.80;;;-0.30;99.90;;;;;;5090553;28;20401;-52
2021/11/23 06:50:21;;;;;;;20.80;11.13;;;-0.20;99.90;;;;;;5091678;28;20389;-52
2021/11/23 06:52:46;;;;;;;24.25;11.38;;;-0.20;99.90;;;;;;5090630;28;20466;-54
2021/11/23 06:55:12;;;;;;;21.90;12.10;;;-0.20;99.90;;;;;;5091169;28;20374;-52
2021/11/23 06:57:38;;;;;;;23.13;13.60;;;1.10;99.90;;;;;;5072733;28;20386;-53
2021/11/23 07:00:07;;;;;;;22.80;13.13;;;-0.20;99.90;;;;;;5090723;28;20951;-52
2021/11/23 07:02:33;;;;;;;26.40;14.70;;;-0.20;99.90;;;;;;5090310;28;20378;-52
2021/11/23 07:05:00;;;;;;;28.07;15.73;;;-0.10;99.90;;;;;;5077006;28;20477;-52
2021/11/23 07:07:26;;;;;;;26.85;14.55;;;-0.10;99.90;;;;;;5080793;28;20843;-52
2021/11/23 07:09:52;;;;;;;25.98;14.93;;;-0.10;99.90;;;;;;5081590;28;20396;-52
2021/11/23 07:12:18;;;;;;;26.23;13.10;;;-0.10;99.90;;;;;;5070155;28;20410;-52
2021/11/23 07:14:44;;;;;;;26.48;13.52;;;0.00;99.90;;;;;;5082616;28;20373;-52
2021/11/23 07:17:10;;;;;;;24.38;12.20;;;0.10;99.90;;;;;;5090666;28;20827;-52
2021/11/23 07:19:35;;;;;;;31.00;12.30;;;0.20;99.90;;;;;;5090481;28;20378;-52
2021/11/23 07:22:01;;;;;;;23.37;12.30;;;0.30;99.90;;;;;;5086757;28;20853;-52
2021/11/23 07:24:27;;;;;;;26.58;12.43;;;1.00;99.90;;;;;;5069925;28;20726;-52
2021/11/23 07:26:53;;;;;;;25.60;12.50;;;0.50;99.90;;;;;;5051587;28;20414;-52
2021/11/23 07:29:19;;;;;;;22.47;12.30;;;1.10;99.90;;;;;;5070208;28;20407;-52
2021/11/23 07:31:45;;;;;;;24.40;13.20;;;0.60;99.90;;;;;;5069342;28;20993;-52
2021/11/23 07:34:10;;;;;;;25.98;12.63;;;0.70;99.90;;;;;;5070159;28;20386;-52
2021/11/23 07:36:38;;;;;;;22.10;12.07;;;0.70;99.90;;;;;;5069475;28;20453;-52
2021/11/23 07:39:05;;;;;;;21.88;11.85;;;0.80;99.90;;;;;;5072581;28;20384;-52
2021/11/23 07:41:30;;;;;;;20.00;11.38;;;0.80;99.90;;;;;;5090328;28;20418;-52
2021/11/23 07:43:57;;;;;;;22.20;12.30;;;2.20;99.90;;;;;;5089462;28;20444;-52
2021/11/23 07:46:23;;;;;;;24.95;12.40;;;1.00;99.90;;;;;;5090052;28;20397;-52
2021/11/23 07:48:49;;;;;;;29.10;12.80;;;1.20;99.90;;;;;;5089381;28;20555;-52
2021/11/23 07:51:15;;;;;;;23.37;12.77;;;2.00;99.90;;;;;;5090147;28;20461;-52
2021/11/23 07:53:41;;;;;;;31.02;12.35;;;1.70;99.90;;;;;;5089667;28;20859;-54
2021/11/23 07:56:07;;;;;;;25.83;12.88;;;1.60;99.90;;;;;;5089785;28;20843;-52
2021/11/23 07:58:32;;;;;;;23.30;11.65;;;1.80;99.90;;;;;;5089746;28;20397;-54
2021/11/23 08:00:58;;;;;;;22.42;12.65;;;1.80;99.90;;;;;;5089024;28;20480;-52
2021/11/23 08:03:25;;;;;;;19.90;11.50;;;2.50;99.90;;;;;;5089757;28;20378;-53
2021/11/23 08:05:50;;;;;;;22.90;12.27;;;1.70;99.90;;;;;;5088554;28;20905;-53
2021/11/23 08:08:16;;;;;;;22.67;13.20;;;1.70;99.90;;;;;;5089721;28;20390;-53
2021/11/23 08:10:42;;;;;;;23.55;11.98;;;1.80;99.90;;;;;;5071367;28;20473;-55
2021/11/23 08:13:08;;;;;;;20.75;11.20;;;2.00;99.90;;;;;;5087102;28;20899;-53
2021/11/23 08:15:37;;;;;;;16.60;10.37;;;2.40;99.90;;;;;;5051108;28;20396;-53
2021/11/23 08:18:07;;;;;;;17.73;9.95;;;3.40;99.90;;;;;;5068909;28;20501;-53
2021/11/23 08:20:33;;;;;;;21.00;10.88;;;4.90;99.90;;;;;;5069577;28;20391;-52
2021/11/23 08:23:00;;;;;;;15.15;8.75;;;6.20;99.90;;;;;;5068004;28;20399;-54
2021/11/23 08:25:26;;;;;;;15.60;8.82;;;7.60;99.90;;;;;;5069904;28;20468;-55
2021/11/23 08:27:54;;;;;;;14.70;9.40;;;8.80;99.90;;;;;;5068862;28;20483;-52
2021/11/23 08:30:20;;;;;;;14.52;9.30;;;;;;;;;;5051619;28;20399;-53
2021/11/23 08:32:45;;;;;;;16.13;11.45;;;11.00;99.30;;;;;;5050546;28;20399;-52
2021/11/23 08:35:11;;;;;;;16.30;14.00;;;11.50;97.40;;;;;;5068759;28;20380;-52
2021/11/23 08:37:38;;;;;;;15.75;9.65;;;12.10;94.80;;;;;;5068769;28;20399;-52
2021/11/23 08:40:06;;;;;;;20.05;11.38;;;12.10;92.10;;;;;;5068211;28;20387;-52
2021/11/23 08:42:31;;;;;;;14.68;9.65;;;11.90;92.00;;;;;;5068581;28;20383;-52
2021/11/23 08:44:57;;;;;;;14.90;9.57;;;11.90;91.50;;;;;;5067642;28;20390;-52
2021/11/23 08:47:24;;;;;;;14.15;9.40;;;12.10;91.20;;;;;;5068821;28;20395;-52
2021/11/23 08:49:51;;;;;;;17.38;9.30;;;12.20;89.30;;;;;;5067811;28;20395;-52
2021/11/23 08:52:17;;;;;;;14.88;9.60;;;11.80;91.30;;;;;;5050586;28;20383;-52
2021/11/23 08:54:43;;;;;;;14.52;9.45;;;11.90;89.40;;;;;;5068551;28;20458;-55
2021/11/23 08:57:09;;;;;;;14.10;9.13;;;12.20;89.60;;;;;;5067945;28;20883;-52
2021/11/23 08:59:41;;;;;;;15.10;8.95;;;12.10;89.50;;;;;;5068613;28;20380;-52
2021/11/23 09:02:12;;;;;;;13.15;8.77;;;12.80;86.20;;;;;;5067943;28;20380;-52
2021/11/23 09:04:40;;;;;;;15.90;9.10;;;12.50;83.70;;;;;;5068525;28;20448;-52
2021/11/23 09:07:08;;;;;;;14.93;8.80;;;12.20;85.40;;;;;;5067283;28;20830;-52
2021/11/23 09:09:37;;;;;;;14.32;10.05;;;12.20;85.90;;;;;;5068275;28;20409;-52
2021/11/23 09:12:03;;;;;;;16.83;8.77;;;11.80;86.90;;;;;;5067879;28;20415;-52
2021/11/23 09:14:31;;;;;;;14.07;8.90;;;11.70;86.80;;;;;;5081958;28;20390;-52
2021/11/23 09:16:58;;;;;;;18.35;10.85;;;11.40;88.30;;;;;;5087889;28;20385;-52
2021/11/23 09:19:26;;;;;;;16.95;11.10;;;12.70;87.40;;;;;;5088838;28;20432;-52
2021/11/23 09:21:53;;;;;;;15.85;11.32;;;13.30;82.90;;;;;;5088094;28;20370;-52
2021/11/23 09:24:22;;;;;;;20.00;18.10;;;13.70;82.80;;;;;;5088680;28;20401;-52
2021/11/23 09:26:51;;;;;;;21.70;20.00;;;14.60;77.20;;;;;;5091916;28;20546;-56
2021/11/23 09:29:17;;;;;;;13.00;8.90;;;14.70;74.80;;;;;;5074958;28;20460;-54
2021/11/23 09:31:43;;;;;;;12.45;8.75;;;14.30;73.40;;;;;;5092621;28;20374;-53
2021/11/23 09:34:11;;;;;;;16.27;9.18;;;14.70;71.70;;;;;;5092152;28;21024;-55
2021/11/23 09:36:37;;;;;;;12.77;8.88;;;15.30;71.30;;;;;;5092742;28;20421;-53
2021/11/23 09:39:05;;;;;;;13.90;8.82;;;14.90;70.70;;;;;;5073652;28;20386;-53
2021/11/23 09:41:33;;;;;;;14.40;8.98;;;14.50;70.00;;;;;;5092792;28;20471;-52
2021/11/23 09:44:02;;;;;;;14.82;8.57;;;14.70;82.30;;;;;;5091815;28;20386;-53
2021/11/23 09:46:37;;;;;;;12.15;8.10;;;15.10;73.30;;;;;;5092329;28;20536;-53
2021/11/23 09:49:04;;;;;;;13.50;8.27;;;14.20;81.90;;;;;;5091635;28;20401;-53
2021/11/23 09:51:32;;;;;;;13.10;8.10;;;13.80;83.10;;;;;;5092504;28;20403;-53
2021/11/23 09:54:02;;;;;;;11.30;7.80;;;14.00;83.90;;;;;;5091325;28;20369;-53
2021/11/23 09:56:29;;;;;;;14.40;8.30;;;13.90;78.20;;;;;;5074012;28;20408;-53
2021/11/23 09:58:55;;;;;;;13.45;8.27;;;14.00;74.60;;;;;;5090703;28;20390;-53
2021/11/23 10:01:24;;;;;;;11.35;8.00;;;14.30;72.50;;;;;;5074111;28;20418;-53
2021/11/23 10:03:50;;;;;;;13.07;8.50;;;14.60;71.20;;;;;;5091621;28;20389;-56
2021/11/23 10:06:20;;;;;;;12.88;7.75;;;14.60;67.50;;;;;;5092262;28;20492;-53
2021/11/23 10:08:47;;;;;;;13.27;7.90;;;14.80;71.70;;;;;;5091919;28;20382;-53
2021/11/23 10:11:32;;;;;;;13.30;7.10;;;15.00;70.20;;;;;;5091379;28;20410;-53
2021/11/23 10:14:05;;;;;;;13.30;9.30;;;14.80;66.20;;;;;;5082129;28;20822;-53
2021/11/23 10:16:45;;;;;;;12.32;7.70;;;14.90;69.30;;;;;;5071235;28;20379;-53
2021/11/23 10:19:14;;;;;;;12.60;7.80;;;15.00;67.20;;;;;;5070781;28;20557;-54
2021/11/23 10:21:56;;;;;;;10.27;7.10;;;15.10;65.60;;;;;;5071663;28;20883;-53
2021/11/23 10:24:22;;;;;;;12.98;7.82;;;14.50;65.90;;;;;;5071372;28;20572;-53
2021/11/23 10:26:49;;;;;;;10.50;6.50;;;13.70;69.50;;;;;;5071309;28;20408;-56
2021/11/23 10:29:15;;;;;;;12.07;7.20;;;13.40;71.00;;;;;;5070407;28;20391;-53
2021/11/23 10:31:44;;;;;;;12.27;8.10;;;13.80;71.30;;;;;;5071020;28;20391;-54
2021/11/23 10:34:15;;;;;;;11.88;7.20;;;13.90;69.40;;;;;;5070618;28;21029;-53
2021/11/23 10:36:44;;;;;;;11.65;8.00;;;14.20;68.80;;;;;;5052849;28;20743;-54
2021/11/23 10:39:26;;;;;;;11.10;7.00;;;14.10;71.80;;;;;;5070142;28;20375;-53
2021/11/23 10:41:58;;;;;;;11.63;7.80;;;13.70;78.00;;;;;;5070280;28;20519;-56
2021/11/23 10:44:27;;;;;;;13.98;7.72;;;14.10;72.90;;;;;;5071393;28;20392;-53
2021/11/23 10:46:56;;;;;;;12.52;7.68;;;14.40;75.10;;;;;;5052764;28;20495;-53
2021/11/23 10:49:33;;;;;;;11.07;6.97;;;13.70;76.30;;;;;;5070895;28;20561;-53
2021/11/23 10:52:00;;;;;;;11.52;6.82;;;13.80;73.30;;;;;;5052546;28;20490;-54
2021/11/23 10:54:31;;;;;;;10.68;6.60;;;14.20;73.40;;;;;;5071129;28;20413;-53
2021/11/23 10:56:58;;;;;;;11.70;7.32;;;14.20;73.50;;;;;;5070320;28;20428;-54
2021/11/23 10:59:24;;;;;;;11.55;6.88;;;14.40;72.50;;;;;;5070996;28;20845;-54
2021/11/23 11:01:51;;;;;;;10.20;6.88;;;14.30;69.10;;;;;;5052863;28;20465;-57
2021/11/23 11:04:19;;;;;;;12.05;6.68;;;14.40;70.20;;;;;;5070624;28;20383;-54
2021/11/23 11:06:46;;;;;;;10.30;6.80;;;14.40;70.70;;;;;;5070978;28;20437;-53
2021/11/23 11:09:14;;;;;;;10.27;6.95;;;13.70;70.70;;;;;;5069592;28;20926;-53
2021/11/23 11:11:39;;;;;;;10.52;6.70;;;12.90;75.60;;;;;;5070228;28;20490;-53
2021/11/23 11:14:06;;;;;;;10.87;6.60;;;12.50;74.80;;;;;;5079678;28;20386;-53
2021/11/23 11:16:35;;;;;;;12.15;7.00;;;12.00;72.70;;;;;;5072765;28;20386;-54
2021/11/23 11:19:09;;;;;;;11.40;6.40;;;11.50;72.20;;;;;;5090148;28;20519;-53
2021/11/23 11:21:50;;;;;;;12.90;6.75;;;11.00;75.10;;;;;;5090769;28;20389;-54
2021/11/23 11:24:23;;;;;;;11.47;7.07;;;10.10;79.30;;;;;;5090013;28;20386;-53
2021/11/23 11:26:54;;;;;;;12.82;6.30;;;9.90;83.80;;;;;;5090553;28;20410;-55
2021/11/23 11:29:30;;;;;;;14.60;7.60;;;9.90;82.40;;;;;;5090472;28;20378;-53
2021/11/23 11:31:58;;;;;;;13.50;7.60;;;9.80;89.50;;;;;;5089698;28;20713;-53
2021/11/23 11:34:32;;;;;;;14.20;8.00;;;9.60;85.80;;;;;;5090316;28;20381;-53
2021/11/23 11:37:19;;;;;;;12.38;6.85;;;9.50;87.40;;;;;;5090093;28;20390;-53
2021/11/23 11:39:59;;;;;;;9.43;5.75;;;9.60;84.00;;;;;;5089912;28;20388;-53
2021/11/23 11:42:25;;;;;;;11.35;6.38;;;9.70;83.50;;;;;;5090441;28;20521;-53
2021/11/23 11:44:53;;;;;;;14.40;5.95;;;9.30;85.80;;;;;;5071953;28;20435;-57
2021/11/23 11:47:31;;;;;;;8.85;5.28;;;9.30;89.20;;;;;;5089673;28;20405;-53
2021/11/23 11:50:03;;;;;;;9.75;5.60;;;9.20;87.40;;;;;;5088439;28;20926;-53
2021/11/23 11:52:32;;;;;;;9.90;5.38;;;9.10;87.10;;;;;;5090437;28;20472;-53
2021/11/23 11:55:16;;;;;;;9.13;5.20;;;9.10;88.90;;;;;;5089718;28;20848;-53
2021/11/23 11:57:57;;;;;;;10.53;5.17;;;9.20;86.30;;;;;;5090012;28;20401;-54
2021/11/23 12:00:22;;;;;;;9.80;5.95;;;9.20;86.80;;;;;;5090064;28;20382;-54
2021/11/23 12:02:50;;;;;;;9.43;5.53;;;9.40;88.60;;;;;;5089964;28;20380;-54
2021/11/23 12:05:17;;;;;;;10.65;5.78;;;9.40;87.60;;;;;;5088756;28;20374;-54
2021/11/23 12:07:44;;;;;;;12.83;6.40;;;9.10;87.90;;;;;;5083961;28;20404;-54
2021/11/23 12:10:27;;;;;;;9.77;5.20;;;8.90;89.10;;;;;;5068754;28;20875;-53
2021/11/23 12:12:56;;;;;;;10.88;5.22;;;9.00;88.80;;;;;;5069514;28;20428;-56
2021/11/23 12:15:21;;;;;;;9.40;5.32;;;8.90;90.20;;;;;;5082784;28;20400;-53
2021/11/23 12:17:58;;;;;;;9.97;5.10;;;8.80;88.80;;;;;;5059254;28;20391;-54
2021/11/23 12:20:53;;;;;;;8.23;4.40;;;9.10;89.70;;;;;;5081447;28;20386;-54
2021/11/23 12:23:29;;;;;;;9.10;4.50;;;9.30;86.90;;;;;;5077110;28;20404;-54
2021/11/23 12:26:16;;;;;;;9.70;4.90;;;9.10;86.70;;;;;;5074821;28;20410;-56
2021/11/23 12:29:01;;;;;;;9.77;5.00;;;8.80;86.60;;;;;;5077678;28;20403;-54
2021/11/23 12:31:43;;;;;;;9.60;4.40;;;9.10;87.80;;;;;;5063093;28;20436;-55
2021/11/23 12:34:09;;;;;;;8.40;4.20;;;9.10;86.70;;;;;;5077947;28;20380;-54
2021/11/23 12:36:44;;;;;;;9.10;4.23;;;9.10;85.00;;;;;;5077471;28;20439;-54
2021/11/23 12:39:19;;;;;;;8.55;4.35;;;9.00;86.90;;;;;;5077595;28;20861;-54
2021/11/23 12:41:47;;;;;;;8.10;4.20;;;9.00;87.40;;;;;;5079965;28;20403;-54
2021/11/23 12:44:24;;;;;;;8.77;4.57;;;9.20;86.20;;;;;;5077031;28;20477;-54
2021/11/23 12:47:02;;;;;;;7.68;3.75;;;9.30;85.00;;;;;;5079316;28;20411;-54